LSZA Airport Information

Runway Information
Runway 01 Length 4429 ft width 98 ft
Elevation 896 ft Threshold 361 ft Heading 19
Runway 19 Length 4429 ft Width 98 ft
Elevation 915 ft Threshold 672 ft Heading 199
Airport Frequencies
Type ATIS Name ATIS Frequency 121.175 MHZ
Type GND Name GND Frequency 121.775 MHZ
Type TWR Name TWR Frequency 120.25 MHZ
Airport Navaids
Airport Weather Information & NOTAM
ADDS - METARS form results

(0747 UTC 22 May 2018)
 
METAR text: LSZA 220720Z 01003KT 330V030 9999 FEW043 SCT060 BKN110 16/14 Q1014 NOSIG
Conditions at: LSZA (LUGANO (PVT/AUT), CH) observed 0720 UTC 22 May 2018
Temperature: 16.0°C (61°F)
Dewpoint: 14.0°C (57°F) [RH = 88%]
Pressure (altimeter): 29.94 inches Hg (1014.0 mb)
Winds: from the N (10 degrees) at 3 MPH (3 knots; 1.6 m/s)
Visibility: 6 or more miles (10+ km)
Ceiling: 11000 feet AGL
Clouds: few clouds at 4300 feet AGL
scattered clouds at 6000 feet AGL
broken clouds at 11000 feet AGL
Weather: no significant weather observed at this time

METAR text: LSZA 220650Z VRB02KT 9999 FEW043 SCT070 BKN110 16/12 Q1014 NOSIG
Conditions at: LSZA (LUGANO (PVT/AUT), CH) observed 0650 UTC 22 May 2018
Temperature: 16.0°C (61°F)
Dewpoint: 12.0°C (54°F) [RH = 77%]
Pressure (altimeter): 29.94 inches Hg (1014.0 mb)
Winds: variable direction winds at 2 MPH (2 knots; 1.0 m/s)
Visibility: 6 or more miles (10+ km)
Ceiling: 11000 feet AGL
Clouds: few clouds at 4300 feet AGL
scattered clouds at 7000 feet AGL
broken clouds at 11000 feet AGL
Weather: no significant weather observed at this time